sensor_id;sensor_type;location;lat;lon;timestamp;P1;durP1;ratioP1;P2;durP2;ratioP2
11731;SDS011;5922;53.734;10.258;2022-12-31T00:03:33;4.00;;;3.60;;
11731;SDS011;5922;53.734;10.258;2022-12-31T00:18:17;4.10;;;3.80;;
11731;SDS011;5922;53.734;10.258;2022-12-31T00:21:12;4.23;;;3.87;;
11731;SDS011;5922;53.734;10.258;2022-12-31T00:26:58;4.03;;;3.63;;
11731;SDS011;5922;53.734;10.258;2022-12-31T00:29:31;4.13;;;3.83;;
11731;SDS011;5922;53.734;10.258;2022-12-31T00:35:00;3.93;;;3.53;;
11731;SDS011;5922;53.734;10.258;2022-12-31T00:37:29;4.47;;;4.10;;
11731;SDS011;5922;53.734;10.258;2022-12-31T00:43:05;4.10;;;3.80;;
11731;SDS011;5922;53.734;10.258;2022-12-31T00:48:57;5.07;;;4.13;;
11731;SDS011;5922;53.734;10.258;2022-12-31T00:51:44;4.07;;;3.60;;
11731;SDS011;5922;53.734;10.258;2022-12-31T01:22:58;4.40;;;4.00;;
11731;SDS011;5922;53.734;10.258;2022-12-31T01:25:26;4.37;;;3.57;;
11731;SDS011;5922;53.734;10.258;2022-12-31T01:37:37;4.00;;;3.60;;
11731;SDS011;5922;53.734;10.258;2022-12-31T01:43:19;4.00;;;3.30;;
11731;SDS011;5922;53.734;10.258;2022-12-31T01:49:08;3.57;;;3.20;;
11731;SDS011;5922;53.734;10.258;2022-12-31T01:51:37;3.60;;;3.27;;
11731;SDS011;5922;53.734;10.258;2022-12-31T01:54:05;4.27;;;3.70;;
11731;SDS011;5922;53.734;10.258;2022-12-31T01:56:34;3.50;;;3.20;;
11731;SDS011;5922;53.734;10.258;2022-12-31T01:59:05;5.27;;;3.07;;
11731;SDS011;5922;53.734;10.258;2022-12-31T02:01:34;3.43;;;3.13;;
11731;SDS011;5922;53.734;10.258;2022-12-31T02:04:03;4.30;;;3.20;;
11731;SDS011;5922;53.734;10.258;2022-12-31T02:06:32;4.47;;;3.37;;
11731;SDS011;5922;53.734;10.258;2022-12-31T02:09:01;3.20;;;2.90;;
11731;SDS011;5922;53.734;10.258;2022-12-31T02:11:30;5.63;;;2.90;;
11731;SDS011;5922;53.734;10.258;2022-12-31T02:14:01;3.80;;;3.03;;
11731;SDS011;5922;53.734;10.258;2022-12-31T02:16:33;4.10;;;3.27;;
11731;SDS011;5922;53.734;10.258;2022-12-31T02:19:06;3.63;;;3.30;;
11731;SDS011;5922;53.734;10.258;2022-12-31T02:21:44;3.30;;;2.80;;
11731;SDS011;5922;53.734;10.258;2022-12-31T02:24:33;4.33;;;3.13;;
11731;SDS011;5922;53.734;10.258;2022-12-31T02:27:06;3.83;;;2.87;;
11731;SDS011;5922;53.734;10.258;2022-12-31T02:32:26;3.47;;;3.10;;
11731;SDS011;5922;53.734;10.258;2022-12-31T02:34:55;3.70;;;3.20;;
11731;SDS011;5922;53.734;10.258;2022-12-31T02:37:24;3.70;;;3.20;;
11731;SDS011;5922;53.734;10.258;2022-12-31T02:39:53;3.40;;;3.10;;
11731;SDS011;5922;53.734;10.258;2022-12-31T02:42:21;4.03;;;3.40;;
11731;SDS011;5922;53.734;10.258;2022-12-31T02:44:48;3.70;;;3.20;;
11731;SDS011;5922;53.734;10.258;2022-12-31T02:47:18;3.37;;;3.07;;
11731;SDS011;5922;53.734;10.258;2022-12-31T02:49:54;5.60;;;3.13;;
11731;SDS011;5922;53.734;10.258;2022-12-31T02:52:28;3.53;;;2.97;;
11731;SDS011;5922;53.734;10.258;2022-12-31T02:54:59;6.63;;;3.33;;
11731;SDS011;5922;53.734;10.258;2022-12-31T02:57:31;3.50;;;3.10;;
11731;SDS011;5922;53.734;10.258;2022-12-31T03:00:00;3.63;;;2.87;;
11731;SDS011;5922;53.734;10.258;2022-12-31T03:02:47;3.83;;;3.03;;
11731;SDS011;5922;53.734;10.258;2022-12-31T03:05:17;3.37;;;3.10;;
11731;SDS011;5922;53.734;10.258;2022-12-31T03:07:45;3.30;;;3.00;;
11731;SDS011;5922;53.734;10.258;2022-12-31T03:10:12;3.90;;;3.07;;
11731;SDS011;5922;53.734;10.258;2022-12-31T03:12:40;5.20;;;3.30;;
11731;SDS011;5922;53.734;10.258;2022-12-31T03:15:11;3.30;;;3.00;;
11731;SDS011;5922;53.734;10.258;2022-12-31T03:17:47;5.03;;;3.40;;
11731;SDS011;5922;53.734;10.258;2022-12-31T03:20:14;2.87;;;2.67;;
11731;SDS011;5922;53.734;10.258;2022-12-31T03:23:02;2.90;;;2.70;;
11731;SDS011;5922;53.734;10.258;2022-12-31T03:25:33;4.60;;;3.00;;
11731;SDS011;5922;53.734;10.258;2022-12-31T03:28:00;3.30;;;3.00;;
11731;SDS011;5922;53.734;10.258;2022-12-31T03:30:28;3.00;;;2.80;;
11731;SDS011;5922;53.734;10.258;2022-12-31T03:32:56;2.70;;;2.50;;
11731;SDS011;5922;53.734;10.258;2022-12-31T03:35:23;2.80;;;2.50;;
11731;SDS011;5922;53.734;10.258;2022-12-31T03:37:53;3.50;;;2.80;;
11731;SDS011;5922;53.734;10.258;2022-12-31T03:40:24;2.90;;;2.50;;
11731;SDS011;5922;53.734;10.258;2022-12-31T03:42:51;3.93;;;2.47;;
11731;SDS011;5922;53.734;10.258;2022-12-31T03:45:19;2.20;;;2.00;;
11731;SDS011;5922;53.734;10.258;2022-12-31T03:47:46;2.43;;;2.23;;
11731;SDS011;5922;53.734;10.258;2022-12-31T03:50:15;2.40;;;2.20;;
11731;SDS011;5922;53.734;10.258;2022-12-31T03:52:43;2.40;;;2.20;;
11731;SDS011;5922;53.734;10.258;2022-12-31T03:55:11;3.03;;;2.10;;
11731;SDS011;5922;53.734;10.258;2022-12-31T03:57:40;2.53;;;1.90;;
11731;SDS011;5922;53.734;10.258;2022-12-31T04:00:09;2.43;;;2.13;;
11731;SDS011;5922;53.734;10.258;2022-12-31T04:02:38;2.33;;;2.13;;
11731;SDS011;5922;53.734;10.258;2022-12-31T04:05:08;3.27;;;2.07;;
11731;SDS011;5922;53.734;10.258;2022-12-31T04:07:36;2.27;;;1.90;;
11731;SDS011;5922;53.734;10.258;2022-12-31T04:10:04;2.73;;;2.10;;
11731;SDS011;5922;53.734;10.258;2022-12-31T04:12:32;2.90;;;2.27;;
11731;SDS011;5922;53.734;10.258;2022-12-31T04:15:00;3.10;;;2.20;;
11731;SDS011;5922;53.734;10.258;2022-12-31T04:17:28;2.30;;;2.10;;
11731;SDS011;5922;53.734;10.258;2022-12-31T04:19:55;5.03;;;2.00;;
11731;SDS011;5922;53.734;10.258;2022-12-31T04:22:22;2.40;;;2.20;;
11731;SDS011;5922;53.734;10.258;2022-12-31T04:24:51;2.23;;;2.10;;
11731;SDS011;5922;53.734;10.258;2022-12-31T04:27:21;4.43;;;2.17;;
11731;SDS011;5922;53.734;10.258;2022-12-31T04:29:48;2.40;;;2.20;;
11731;SDS011;5922;53.734;10.258;2022-12-31T04:32:17;4.17;;;2.00;;
11731;SDS011;5922;53.734;10.258;2022-12-31T04:34:44;2.20;;;2.00;;
11731;SDS011;5922;53.734;10.258;2022-12-31T04:37:11;2.27;;;2.07;;
11731;SDS011;5922;53.734;10.258;2022-12-31T04:39:39;2.30;;;2.10;;
11731;SDS011;5922;53.734;10.258;2022-12-31T04:42:06;3.80;;;1.97;;
11731;SDS011;5922;53.734;10.258;2022-12-31T04:44:35;2.50;;;2.30;;
11731;SDS011;5922;53.734;10.258;2022-12-31T04:47:03;3.37;;;2.23;;
11731;SDS011;5922;53.734;10.258;2022-12-31T04:49:32;2.60;;;2.40;;
11731;SDS011;5922;53.734;10.258;2022-12-31T04:52:01;2.50;;;2.30;;
11731;SDS011;5922;53.734;10.258;2022-12-31T04:54:29;2.63;;;2.30;;
11731;SDS011;5922;53.734;10.258;2022-12-31T04:56:56;2.57;;;2.37;;
11731;SDS011;5922;53.734;10.258;2022-12-31T04:59:27;3.17;;;2.47;;
11731;SDS011;5922;53.734;10.258;2022-12-31T05:01:55;3.07;;;2.40;;
11731;SDS011;5922;53.734;10.258;2022-12-31T05:04:22;4.00;;;2.23;;
11731;SDS011;5922;53.734;10.258;2022-12-31T05:06:51;2.47;;;2.27;;
11731;SDS011;5922;53.734;10.258;2022-12-31T05:09:18;2.30;;;1.97;;
11731;SDS011;5922;53.734;10.258;2022-12-31T05:11:45;2.47;;;2.27;;
11731;SDS011;5922;53.734;10.258;2022-12-31T05:14:13;3.77;;;2.27;;
11731;SDS011;5922;53.734;10.258;2022-12-31T05:16:40;1.83;;;1.73;;
11731;SDS011;5922;53.734;10.258;2022-12-31T05:19:07;2.27;;;2.07;;
11731;SDS011;5922;53.734;10.258;2022-12-31T05:21:34;2.43;;;2.00;;
11731;SDS011;5922;53.734;10.258;2022-12-31T05:24:06;2.33;;;1.90;;
11731;SDS011;5922;53.734;10.258;2022-12-31T05:26:33;2.03;;;1.83;;
11731;SDS011;5922;53.734;10.258;2022-12-31T05:29:01;1.93;;;1.70;;
11731;SDS011;5922;53.734;10.258;2022-12-31T05:31:30;1.70;;;1.57;;
11731;SDS011;5922;53.734;10.258;2022-12-31T05:33:58;1.60;;;1.50;;
11731;SDS011;5922;53.734;10.258;2022-12-31T05:36:25;2.13;;;1.50;;
11731;SDS011;5922;53.734;10.258;2022-12-31T05:38:52;4.13;;;1.50;;
11731;SDS011;5922;53.734;10.258;2022-12-31T05:41:21;5.73;;;1.60;;
11731;SDS011;5922;53.734;10.258;2022-12-31T05:43:49;3.10;;;1.70;;
11731;SDS011;5922;53.734;10.258;2022-12-31T05:46:16;1.80;;;1.53;;
11731;SDS011;5922;53.734;10.258;2022-12-31T05:48:45;1.30;;;1.20;;
11731;SDS011;5922;53.734;10.258;2022-12-31T05:51:12;1.60;;;1.50;;
11731;SDS011;5922;53.734;10.258;2022-12-31T05:53:40;3.57;;;1.40;;
11731;SDS011;5922;53.734;10.258;2022-12-31T05:56:07;1.40;;;1.30;;
11731;SDS011;5922;53.734;10.258;2022-12-31T05:58:36;1.83;;;1.50;;
11731;SDS011;5922;53.734;10.258;2022-12-31T06:01:03;1.30;;;1.20;;
11731;SDS011;5922;53.734;10.258;2022-12-31T06:03:31;1.03;;;1.03;;
11731;SDS011;5922;53.734;10.258;2022-12-31T06:05:59;1.33;;;1.23;;
11731;SDS011;5922;53.734;10.258;2022-12-31T06:08:27;4.27;;;1.63;;
11731;SDS011;5922;53.734;10.258;2022-12-31T06:10:54;3.07;;;1.47;;
11731;SDS011;5922;53.734;10.258;2022-12-31T06:13:21;1.40;;;1.30;;
11731;SDS011;5922;53.734;10.258;2022-12-31T06:15:50;1.27;;;1.17;;
11731;SDS011;5922;53.734;10.258;2022-12-31T06:18:17;1.53;;;1.20;;
11731;SDS011;5922;53.734;10.258;2022-12-31T06:20:44;1.30;;;1.20;;
11731;SDS011;5922;53.734;10.258;2022-12-31T06:23:12;1.50;;;1.40;;
11731;SDS011;5922;53.734;10.258;2022-12-31T06:25:39;1.40;;;1.30;;
11731;SDS011;5922;53.734;10.258;2022-12-31T06:28:08;1.20;;;1.10;;
11731;SDS011;5922;53.734;10.258;2022-12-31T06:30:36;1.37;;;1.27;;
11731;SDS011;5922;53.734;10.258;2022-12-31T06:33:04;1.27;;;1.10;;
11731;SDS011;5922;53.734;10.258;2022-12-31T06:35:31;1.97;;;1.20;;
11731;SDS011;5922;53.734;10.258;2022-12-31T06:37:59;2.40;;;1.50;;
11731;SDS011;5922;53.734;10.258;2022-12-31T06:40:32;1.97;;;1.03;;
11731;SDS011;5922;53.734;10.258;2022-12-31T06:43:05;1.40;;;1.30;;
11731;SDS011;5922;53.734;10.258;2022-12-31T06:45:32;1.50;;;1.40;;
11731;SDS011;5922;53.734;10.258;2022-12-31T06:48:11;1.80;;;1.20;;
11731;SDS011;5922;53.734;10.258;2022-12-31T06:50:38;1.53;;;1.20;;
11731;SDS011;5922;53.734;10.258;2022-12-31T06:53:06;1.27;;;1.20;;
11731;SDS011;5922;53.734;10.258;2022-12-31T06:55:35;1.20;;;1.10;;
11731;SDS011;5922;53.734;10.258;2022-12-31T06:58:03;1.40;;;1.17;;
11731;SDS011;5922;53.734;10.258;2022-12-31T07:00:30;1.20;;;1.13;;
11731;SDS011;5922;53.734;10.258;2022-12-31T07:03:08;1.03;;;0.90;;
11731;SDS011;5922;53.734;10.258;2022-12-31T07:05:43;1.00;;;0.90;;
11731;SDS011;5922;53.734;10.258;2022-12-31T07:10:58;1.27;;;1.13;;
11731;SDS011;5922;53.734;10.258;2022-12-31T07:13:41;0.93;;;0.83;;
11731;SDS011;5922;53.734;10.258;2022-12-31T07:16:14;0.90;;;0.90;;
11731;SDS011;5922;53.734;10.258;2022-12-31T07:21:39;2.90;;;1.20;;
11731;SDS011;5922;53.734;10.258;2022-12-31T07:24:07;0.90;;;0.90;;
11731;SDS011;5922;53.734;10.258;2022-12-31T07:26:47;1.23;;;1.00;;
11731;SDS011;5922;53.734;10.258;2022-12-31T07:29:16;1.00;;;0.90;;
11731;SDS011;5922;53.734;10.258;2022-12-31T07:31:51;0.90;;;0.90;;
11731;SDS011;5922;53.734;10.258;2022-12-31T07:34:22;1.33;;;0.80;;
11731;SDS011;5922;53.734;10.258;2022-12-31T07:37:03;1.27;;;0.87;;
11731;SDS011;5922;53.734;10.258;2022-12-31T07:39:35;1.90;;;1.17;;
11731;SDS011;5922;53.734;10.258;2022-12-31T07:42:08;0.80;;;0.80;;
11731;SDS011;5922;53.734;10.258;2022-12-31T07:44:40;1.27;;;1.03;;
11731;SDS011;5922;53.734;10.258;2022-12-31T07:47:13;1.17;;;1.07;;
11731;SDS011;5922;53.734;10.258;2022-12-31T07:49:42;1.03;;;0.90;;
11731;SDS011;5922;53.734;10.258;2022-12-31T07:52:15;2.10;;;0.80;;
11731;SDS011;5922;53.734;10.258;2022-12-31T07:54:42;0.80;;;0.80;;
11731;SDS011;5922;53.734;10.258;2022-12-31T07:57:10;0.80;;;0.80;;
11731;SDS011;5922;53.734;10.258;2022-12-31T07:59:53;1.30;;;0.90;;
11731;SDS011;5922;53.734;10.258;2022-12-31T08:02:31;1.03;;;0.93;;
11731;SDS011;5922;53.734;10.258;2022-12-31T08:05:06;1.10;;;1.00;;
11731;SDS011;5922;53.734;10.258;2022-12-31T08:07:39;2.60;;;0.90;;
11731;SDS011;5922;53.734;10.258;2022-12-31T08:10:08;0.83;;;0.83;;
11731;SDS011;5922;53.734;10.258;2022-12-31T08:12:37;0.90;;;0.83;;
11731;SDS011;5922;53.734;10.258;2022-12-31T08:18:01;0.70;;;0.70;;
11731;SDS011;5922;53.734;10.258;2022-12-31T08:20:32;0.90;;;0.90;;
11731;SDS011;5922;53.734;10.258;2022-12-31T08:23:16;1.50;;;0.90;;
11731;SDS011;5922;53.734;10.258;2022-12-31T08:25:49;0.93;;;0.90;;
11731;SDS011;5922;53.734;10.258;2022-12-31T08:28:23;0.70;;;0.70;;
11731;SDS011;5922;53.734;10.258;2022-12-31T08:30:53;0.80;;;0.80;;
11731;SDS011;5922;53.734;10.258;2022-12-31T08:33:25;0.80;;;0.47;;
11731;SDS011;5922;53.734;10.258;2022-12-31T08:35:59;0.70;;;0.70;;
11731;SDS011;5922;53.734;10.258;2022-12-31T08:38:35;0.87;;;0.87;;
11731;SDS011;5922;53.734;10.258;2022-12-31T08:41:06;0.80;;;0.80;;
11731;SDS011;5922;53.734;10.258;2022-12-31T08:43:41;2.43;;;1.00;;
11731;SDS011;5922;53.734;10.258;2022-12-31T08:46:18;0.90;;;0.90;;
11731;SDS011;5922;53.734;10.258;2022-12-31T08:48:54;1.40;;;1.20;;
11731;SDS011;5922;53.734;10.258;2022-12-31T08:51:28;1.13;;;1.00;;
11731;SDS011;5922;53.734;10.258;2022-12-31T08:53:58;1.50;;;1.30;;
11731;SDS011;5922;53.734;10.258;2022-12-31T08:56:33;1.10;;;1.07;;
11731;SDS011;5922;53.734;10.258;2022-12-31T08:59:11;1.00;;;0.90;;
11731;SDS011;5922;53.734;10.258;2022-12-31T09:01:54;1.13;;;1.10;;
11731;SDS011;5922;53.734;10.258;2022-12-31T09:04:35;1.70;;;1.03;;
11731;SDS011;5922;53.734;10.258;2022-12-31T09:07:10;1.53;;;1.40;;
11731;SDS011;5922;53.734;10.258;2022-12-31T09:09:43;1.70;;;1.60;;
11731;SDS011;5922;53.734;10.258;2022-12-31T09:12:20;1.40;;;1.30;;
11731;SDS011;5922;53.734;10.258;2022-12-31T09:14:59;1.23;;;1.20;;
11731;SDS011;5922;53.734;10.258;2022-12-31T09:17:41;1.50;;;1.40;;
11731;SDS011;5922;53.734;10.258;2022-12-31T09:20:18;4.20;;;1.33;;
11731;SDS011;5922;53.734;10.258;2022-12-31T09:22:56;1.40;;;1.30;;
11731;SDS011;5922;53.734;10.258;2022-12-31T09:25:28;1.23;;;1.20;;
11731;SDS011;5922;53.734;10.258;2022-12-31T09:28:09;0.90;;;0.90;;
11731;SDS011;5922;53.734;10.258;2022-12-31T09:30:47;1.10;;;1.10;;
11731;SDS011;5922;53.734;10.258;2022-12-31T09:33:20;1.23;;;1.13;;
11731;SDS011;5922;53.734;10.258;2022-12-31T09:35:52;0.90;;;0.90;;
11731;SDS011;5922;53.734;10.258;2022-12-31T09:38:30;1.10;;;1.07;;
11731;SDS011;5922;53.734;10.258;2022-12-31T09:41:11;1.33;;;1.00;;
11731;SDS011;5922;53.734;10.258;2022-12-31T09:44:00;0.80;;;0.80;;
11731;SDS011;5922;53.734;10.258;2022-12-31T09:46:47;0.97;;;0.97;;
11731;SDS011;5922;53.734;10.258;2022-12-31T09:49:30;0.90;;;0.90;;
11731;SDS011;5922;53.734;10.258;2022-12-31T09:52:06;1.40;;;1.00;;
11731;SDS011;5922;53.734;10.258;2022-12-31T09:54:43;1.33;;;1.20;;
11731;SDS011;5922;53.734;10.258;2022-12-31T09:57:26;1.83;;;1.40;;
11731;SDS011;5922;53.734;10.258;2022-12-31T09:59:56;1.70;;;1.23;;
11731;SDS011;5922;53.734;10.258;2022-12-31T10:02:40;1.10;;;1.10;;
11731;SDS011;5922;53.734;10.258;2022-12-31T10:05:19;1.97;;;1.27;;
11731;SDS011;5922;53.734;10.258;2022-12-31T10:07:54;1.93;;;1.73;;
11731;SDS011;5922;53.734;10.258;2022-12-31T10:10:27;1.80;;;1.70;;
11731;SDS011;5922;53.734;10.258;2022-12-31T10:13:00;1.70;;;1.60;;
11731;SDS011;5922;53.734;10.258;2022-12-31T10:15:34;1.70;;;1.60;;
11731;SDS011;5922;53.734;10.258;2022-12-31T10:18:09;1.80;;;1.70;;
11731;SDS011;5922;53.734;10.258;2022-12-31T10:20:46;2.10;;;1.90;;
11731;SDS011;5922;53.734;10.258;2022-12-31T10:23:24;2.47;;;2.20;;
11731;SDS011;5922;53.734;10.258;2022-12-31T10:28:38;1.70;;;1.60;;
11731;SDS011;5922;53.734;10.258;2022-12-31T10:31:12;2.30;;;1.70;;
11731;SDS011;5922;53.734;10.258;2022-12-31T10:33:44;1.57;;;1.47;;
11731;SDS011;5922;53.734;10.258;2022-12-31T10:36:14;1.43;;;1.33;;
11731;SDS011;5922;53.734;10.258;2022-12-31T10:38:46;2.00;;;1.40;;
11731;SDS011;5922;53.734;10.258;2022-12-31T10:41:24;1.83;;;1.20;;
11731;SDS011;5922;53.734;10.258;2022-12-31T10:47:06;1.37;;;1.30;;
11731;SDS011;5922;53.734;10.258;2022-12-31T10:49:49;1.60;;;1.50;;
11731;SDS011;5922;53.734;10.258;2022-12-31T10:58:04;1.43;;;1.33;;
11731;SDS011;5922;53.734;10.258;2022-12-31T11:00:36;1.17;;;1.13;;
11731;SDS011;5922;53.734;10.258;2022-12-31T11:11:28;1.53;;;1.30;;
11731;SDS011;5922;53.734;10.258;2022-12-31T11:16:55;3.80;;;1.40;;
11731;SDS011;5922;53.734;10.258;2022-12-31T11:19:24;1.20;;;1.10;;
11731;SDS011;5922;53.734;10.258;2022-12-31T11:22:02;1.07;;;0.97;;
11731;SDS011;5922;53.734;10.258;2022-12-31T11:24:37;1.53;;;1.43;;
11731;SDS011;5922;53.734;10.258;2022-12-31T11:27:15;1.40;;;1.30;;
11731;SDS011;5922;53.734;10.258;2022-12-31T11:29:54;1.37;;;1.23;;
11731;SDS011;5922;53.734;10.258;2022-12-31T11:32:31;4.40;;;1.50;;
11731;SDS011;5922;53.734;10.258;2022-12-31T11:35:06;2.87;;;2.30;;
11731;SDS011;5922;53.734;10.258;2022-12-31T11:37:40;4.43;;;2.93;;
11731;SDS011;5922;53.734;10.258;2022-12-31T11:45:56;2.27;;;1.70;;
11731;SDS011;5922;53.734;10.258;2022-12-31T11:48:29;1.90;;;1.70;;
11731;SDS011;5922;53.734;10.258;2022-12-31T11:51:02;1.57;;;1.47;;
11731;SDS011;5922;53.734;10.258;2022-12-31T11:56:25;1.30;;;1.20;;
11731;SDS011;5922;53.734;10.258;2022-12-31T11:58:55;1.10;;;1.10;;
11731;SDS011;5922;53.734;10.258;2022-12-31T12:01:25;2.53;;;1.40;;
11731;SDS011;5922;53.734;10.258;2022-12-31T12:03:55;1.70;;;1.30;;
11731;SDS011;5922;53.734;10.258;2022-12-31T12:06:27;4.97;;;2.63;;
11731;SDS011;5922;53.734;10.258;2022-12-31T12:08:54;2.50;;;2.10;;
11731;SDS011;5922;53.734;10.258;2022-12-31T12:11:23;2.37;;;1.63;;
11731;SDS011;5922;53.734;10.258;2022-12-31T12:13:51;1.27;;;1.10;;
11731;SDS011;5922;53.734;10.258;2022-12-31T12:16:19;0.90;;;0.90;;
11731;SDS011;5922;53.734;10.258;2022-12-31T12:18:49;0.83;;;0.80;;
11731;SDS011;5922;53.734;10.258;2022-12-31T12:21:17;0.83;;;0.83;;
11731;SDS011;5922;53.734;10.258;2022-12-31T12:23:53;0.80;;;0.80;;
11731;SDS011;5922;53.734;10.258;2022-12-31T12:26:25;0.73;;;0.73;;
11731;SDS011;5922;53.734;10.258;2022-12-31T12:28:54;0.70;;;0.70;;
11731;SDS011;5922;53.734;10.258;2022-12-31T12:31:22;0.93;;;0.87;;
11731;SDS011;5922;53.734;10.258;2022-12-31T12:33:52;0.90;;;0.90;;
11731;SDS011;5922;53.734;10.258;2022-12-31T12:36:19;0.80;;;0.80;;
11731;SDS011;5922;53.734;10.258;2022-12-31T12:38:47;0.70;;;0.70;;
11731;SDS011;5922;53.734;10.258;2022-12-31T12:44:04;0.63;;;0.63;;
11731;SDS011;5922;53.734;10.258;2022-12-31T12:46:34;0.80;;;0.80;;
11731;SDS011;5922;53.734;10.258;2022-12-31T12:49:03;0.90;;;0.90;;
11731;SDS011;5922;53.734;10.258;2022-12-31T12:51:36;1.53;;;0.90;;
11731;SDS011;5922;53.734;10.258;2022-12-31T12:54:16;0.70;;;0.70;;
11731;SDS011;5922;53.734;10.258;2022-12-31T12:56:49;2.10;;;0.80;;
11731;SDS011;5922;53.734;10.258;2022-12-31T12:59:25;0.80;;;0.80;;
11731;SDS011;5922;53.734;10.258;2022-12-31T13:02:01;1.00;;;0.97;;
11731;SDS011;5922;53.734;10.258;2022-12-31T13:04:45;1.13;;;1.00;;
11731;SDS011;5922;53.734;10.258;2022-12-31T13:07:18;1.10;;;1.00;;
11731;SDS011;5922;53.734;10.258;2022-12-31T13:09:51;2.40;;;2.20;;
11731;SDS011;5922;53.734;10.258;2022-12-31T13:12:23;1.20;;;0.90;;
11731;SDS011;5922;53.734;10.258;2022-12-31T13:15:11;0.80;;;0.80;;
11731;SDS011;5922;53.734;10.258;2022-12-31T13:17:45;1.20;;;0.90;;
11731;SDS011;5922;53.734;10.258;2022-12-31T13:20:18;0.77;;;0.77;;
11731;SDS011;5922;53.734;10.258;2022-12-31T13:22:56;0.60;;;0.60;;
11731;SDS011;5922;53.734;10.258;2022-12-31T13:25:28;0.73;;;0.73;;
11731;SDS011;5922;53.734;10.258;2022-12-31T13:31:18;0.87;;;0.70;;
11731;SDS011;5922;53.734;10.258;2022-12-31T13:33:49;1.50;;;0.70;;
11731;SDS011;5922;53.734;10.258;2022-12-31T13:36:20;1.20;;;1.10;;
11731;SDS011;5922;53.734;10.258;2022-12-31T13:38:49;1.10;;;1.00;;
11731;SDS011;5922;53.734;10.258;2022-12-31T13:41:18;1.77;;;1.47;;
11731;SDS011;5922;53.734;10.258;2022-12-31T13:43:49;1.73;;;1.07;;
11731;SDS011;5922;53.734;10.258;2022-12-31T13:46:20;1.47;;;1.10;;
11731;SDS011;5922;53.734;10.258;2022-12-31T13:48:51;0.97;;;0.97;;
11731;SDS011;5922;53.734;10.258;2022-12-31T13:51:28;1.20;;;1.10;;
11731;SDS011;5922;53.734;10.258;2022-12-31T13:54:00;1.53;;;1.10;;
11731;SDS011;5922;53.734;10.258;2022-12-31T13:56:32;1.33;;;0.90;;
11731;SDS011;5922;53.734;10.258;2022-12-31T13:59:06;1.03;;;1.00;;
11731;SDS011;5922;53.734;10.258;2022-12-31T14:01:42;1.00;;;1.00;;
11731;SDS011;5922;53.734;10.258;2022-12-31T14:07:01;1.10;;;1.00;;
11731;SDS011;5922;53.734;10.258;2022-12-31T14:09:32;1.17;;;1.07;;
11731;SDS011;5922;53.734;10.258;2022-12-31T14:12:12;1.33;;;1.20;;
11731;SDS011;5922;53.734;10.258;2022-12-31T14:14:45;1.10;;;1.00;;
11731;SDS011;5922;53.734;10.258;2022-12-31T14:17:18;1.70;;;1.20;;
11731;SDS011;5922;53.734;10.258;2022-12-31T14:19:51;1.20;;;0.93;;
11731;SDS011;5922;53.734;10.258;2022-12-31T14:22:24;1.13;;;1.10;;
11731;SDS011;5922;53.734;10.258;2022-12-31T14:24:54;1.03;;;1.03;;
11731;SDS011;5922;53.734;10.258;2022-12-31T14:27:24;2.60;;;1.13;;
11731;SDS011;5922;53.734;10.258;2022-12-31T14:29:53;1.07;;;1.03;;
11731;SDS011;5922;53.734;10.258;2022-12-31T14:35:17;1.20;;;1.10;;
11731;SDS011;5922;53.734;10.258;2022-12-31T14:37:51;0.97;;;0.97;;
11731;SDS011;5922;53.734;10.258;2022-12-31T14:40:23;1.23;;;1.00;;
11731;SDS011;5922;53.734;10.258;2022-12-31T14:42:54;1.30;;;1.10;;
11731;SDS011;5922;53.734;10.258;2022-12-31T14:45:29;2.50;;;1.20;;
11731;SDS011;5922;53.734;10.258;2022-12-31T14:48:03;1.40;;;1.30;;
11731;SDS011;5922;53.734;10.258;2022-12-31T15:02:47;2.57;;;2.07;;
11731;SDS011;5922;53.734;10.258;2022-12-31T15:05:34;4.77;;;3.03;;
11731;SDS011;5922;53.734;10.258;2022-12-31T15:36:07;6.67;;;6.03;;
11731;SDS011;5922;53.734;10.258;2022-12-31T15:38:41;6.70;;;3.90;;
11731;SDS011;5922;53.734;10.258;2022-12-31T15:44:01;6.87;;;5.77;;
11731;SDS011;5922;53.734;10.258;2022-12-31T15:46:32;13.33;;;8.50;;
11731;SDS011;5922;53.734;10.258;2022-12-31T15:49:03;10.80;;;9.63;;
11731;SDS011;5922;53.734;10.258;2022-12-31T15:51:45;6.27;;;5.37;;
11731;SDS011;5922;53.734;10.258;2022-12-31T15:54:18;4.73;;;4.23;;
11731;SDS011;5922;53.734;10.258;2022-12-31T15:56:49;4.77;;;3.73;;
11731;SDS011;5922;53.734;10.258;2022-12-31T15:59:17;3.93;;;3.47;;
11731;SDS011;5922;53.734;10.258;2022-12-31T16:01:44;5.10;;;3.40;;
11731;SDS011;5922;53.734;10.258;2022-12-31T16:04:21;5.07;;;4.20;;
11731;SDS011;5922;53.734;10.258;2022-12-31T16:06:56;4.90;;;3.90;;
11731;SDS011;5922;53.734;10.258;2022-12-31T16:09:36;5.73;;;4.70;;
11731;SDS011;5922;53.734;10.258;2022-12-31T16:12:08;5.43;;;4.20;;
11731;SDS011;5922;53.734;10.258;2022-12-31T16:15:29;2.77;;;2.50;;
11731;SDS011;5922;53.734;10.258;2022-12-31T16:18:21;3.83;;;3.33;;
11731;SDS011;5922;53.734;10.258;2022-12-31T16:20:51;4.20;;;3.40;;
11731;SDS011;5922;53.734;10.258;2022-12-31T16:23:31;4.50;;;3.47;;
11731;SDS011;5922;53.734;10.258;2022-12-31T16:26:07;5.40;;;3.70;;
11731;SDS011;5922;53.734;10.258;2022-12-31T16:28:40;4.50;;;4.10;;
11731;SDS011;5922;53.734;10.258;2022-12-31T16:31:12;9.43;;;5.70;;
11731;SDS011;5922;53.734;10.258;2022-12-31T16:33:43;8.10;;;3.30;;
11731;SDS011;5922;53.734;10.258;2022-12-31T16:36:37;3.77;;;2.87;;
11731;SDS011;5922;53.734;10.258;2022-12-31T16:39:22;4.93;;;3.90;;
11731;SDS011;5922;53.734;10.258;2022-12-31T16:44:42;4.67;;;3.80;;
11731;SDS011;5922;53.734;10.258;2022-12-31T16:47:20;6.33;;;4.07;;
11731;SDS011;5922;53.734;10.258;2022-12-31T16:55:40;8.70;;;5.43;;
11731;SDS011;5922;53.734;10.258;2022-12-31T16:58:10;8.70;;;6.50;;
11731;SDS011;5922;53.734;10.258;2022-12-31T17:01:06;8.83;;;5.40;;
11731;SDS011;5922;53.734;10.258;2022-12-31T17:03:51;4.90;;;4.30;;
11731;SDS011;5922;53.734;10.258;2022-12-31T17:06:47;7.83;;;5.07;;
11731;SDS011;5922;53.734;10.258;2022-12-31T17:09:15;5.17;;;3.90;;
11731;SDS011;5922;53.734;10.258;2022-12-31T17:11:48;5.20;;;3.63;;
11731;SDS011;5922;53.734;10.258;2022-12-31T17:14:16;7.47;;;5.27;;
11731;SDS011;5922;53.734;10.258;2022-12-31T17:16:51;6.17;;;4.57;;
11731;SDS011;5922;53.734;10.258;2022-12-31T17:19:32;5.07;;;3.80;;
11731;SDS011;5922;53.734;10.258;2022-12-31T17:22:01;5.60;;;4.30;;
11731;SDS011;5922;53.734;10.258;2022-12-31T17:24:29;3.97;;;3.40;;
11731;SDS011;5922;53.734;10.258;2022-12-31T17:27:02;5.17;;;3.20;;
11731;SDS011;5922;53.734;10.258;2022-12-31T17:29:32;5.20;;;3.20;;
11731;SDS011;5922;53.734;10.258;2022-12-31T17:32:00;4.40;;;3.00;;
11731;SDS011;5922;53.734;10.258;2022-12-31T17:34:30;7.77;;;3.53;;
11731;SDS011;5922;53.734;10.258;2022-12-31T17:37:02;3.20;;;2.90;;
11731;SDS011;5922;53.734;10.258;2022-12-31T17:39:44;3.33;;;2.57;;
11731;SDS011;5922;53.734;10.258;2022-12-31T17:42:14;4.00;;;2.17;;
11731;SDS011;5922;53.734;10.258;2022-12-31T17:44:42;2.83;;;2.33;;
11731;SDS011;5922;53.734;10.258;2022-12-31T17:47:11;4.30;;;2.20;;
11731;SDS011;5922;53.734;10.258;2022-12-31T17:49:39;3.03;;;2.40;;
11731;SDS011;5922;53.734;10.258;2022-12-31T17:52:09;5.50;;;3.27;;
11731;SDS011;5922;53.734;10.258;2022-12-31T17:54:37;5.03;;;3.00;;
11731;SDS011;5922;53.734;10.258;2022-12-31T17:57:05;3.83;;;3.40;;
11731;SDS011;5922;53.734;10.258;2022-12-31T17:59:35;4.40;;;2.37;;
11731;SDS011;5922;53.734;10.258;2022-12-31T18:02:03;3.80;;;2.10;;
11731;SDS011;5922;53.734;10.258;2022-12-31T18:04:31;2.90;;;2.50;;
11731;SDS011;5922;53.734;10.258;2022-12-31T18:06:58;3.57;;;2.73;;
11731;SDS011;5922;53.734;10.258;2022-12-31T18:09:25;5.47;;;2.50;;
11731;SDS011;5922;53.734;10.258;2022-12-31T18:11:54;3.23;;;1.80;;
11731;SDS011;5922;53.734;10.258;2022-12-31T18:14:28;3.87;;;3.00;;
11731;SDS011;5922;53.734;10.258;2022-12-31T18:16:57;4.30;;;3.23;;